Filtrer par Nom Sexe Groupe d'age
Virenque 142km 2007
RG. DOS. TEMPS CAT RG. POINTS
1 76 ROUX MICHEL 03:06:56:000 E 1 300.00 DIGNE LES BAINS, FRANCE
2 14 COLEVRET PHILIPPE 03:06:57:000 D 1 300.00 NICE, FRANCE
3 75 HILAIRE RAPHAEL 03:07:55:000 D 2 299.00 FONS, FRANCE
4 221 LAFOI FREDERIC 03:09:10:000 D 3 298.00 BOURG SAINT MAURICE, FRANCE
5 267 QUICLET JEAN BAPTISTE 03:09:11:000 C 1 300.00 VOITEUR, FRANCE
6 216 DESCHAMPS OLIVIER 03:09:13:000 C 2 299.00 CAVAILLON, FRANCE
7 682 GIRAUD DAVID 03:09:13:000 C 3 298.00 CHATTE, FRANCE
8 1817 POLVERONI DAVID 03:10:17:000 C 4 297.00 NOYAREY, France
9 74 CHEYLAN STEPHANE 03:10:41:000 D 4 297.00 VELLERON, FRANCE
10 232 PIGAGLIO KEVIN 03:10:42:000 C 5 296.00 LES SALINS D HYERES, FRANCE
11 219 BIBOLLET FRANCIS 03:10:43:000 E 2 299.00 VILLARDS SUR THONES, FRANCE
12 52 ROTA HERVE 03:13:35:000 D 5 296.00 LA SEYNE SUR MER, FRANCE
13 218 VAN ZANTEN JEAN LUC 03:15:01:000 D 6 295.00 ST JEAN DE MAURIENNE, FRANCE
14 228 RANDON PHILIPPE 03:15:02:000 E 3 298.00 COMBAILLAUX, FRANCE
15 243 MUMBER FRANK 03:15:16:000 D 7 294.00 BRIANCON, FRANCE
16 263 MARTIN PIERRE 03:15:17:000 C 6 295.00 GOULT, FRANCE
17 617 LANTERI ALAIN 03:17:32:000 E 4 297.00 PUGET THENIERS, FRANCE
19 266 PESENTI OLIVIER 03:18:56:000 C 7 294.00 MORBIER, FRANCE
20 270 PINEDE CHRISTIAN 03:19:10:000 E 5 296.00 GIGNAC LA NERTHE, FRANCE
21 1563 ROBIN JACKIE 03:21:00:000 F 1 300.00 SIX FOURS LES PLAGES, FRANCE
22 1583 ADAMO ERIC 03:21:01:000 F 2 299.00 NICE, FRANCE
23 635 GARCIN BRUNO 03:21:32:000 E 6 295.00 FRANCE, FRANCE
24 214 BRACCO BERNARD 03:21:34:000 F 3 298.00 LAMBESC, FRANCE
25 312 KILMAN ALAIN 03:21:34:000 E 7 294.00 , France
26 636 SIBUE PIERRE 03:22:34:000 D 8 293.00 LANS EN VERCORS, FRANCE
27 268 MEUNIER DIDIER 03:22:36:000 E 8 293.00 GARDANNE, FRANCE
28 1607 DELAGE MARC 03:22:39:000 F 4 297.00 ROQUEVAIRE, FRANCE
29 582 AMAR NICOLAS 03:23:10:000 D 9 292.00 CERESTE, FRANCE
30 757 RENNO ERIC 03:23:14:000 E 9 292.00 RIXHEIM, FRANCE
31 70 GISSINGER ARNAUD 03:24:43:000 D 10 291.00 CARROS, FRANCE
32 257 GIORGETTI JEAN PAUL 03:24:44:000 E 10 291.00 BARTENHEIM, FRANCE
33 1716 CLEMENT LAURENT 03:24:49:000 E 11 290.00 ANNONAY, France
34 18 LEGRAND JEAN MICHEL 03:26:49:000 D 11 290.00 PLEYBEN, FRANCE
35 557 SCAVINI JEAN CHRISTOPHE 03:26:50:000 E 12 289.00 PEILLE, FRANCE
36 17 RIAL RENE 03:26:51:000 G 1 300.00 COUZON AU MONT D OR, FRANCE
38 213 CHAURAND ARNAUD 03:26:52:000 C 8 293.00 GAP, FRANCE
39 16 TASSI JEAN MARCEL 03:28:03:000 F 5 296.00 , FRANCE
40 626 OLLIVIER ALAIN 03:28:58:000 F 6 295.00 OLLIOULES, FRANCE
41 78 LUBESPERE J.FRANCOIS 03:30:14:000 F 7 294.00 ORANGE, FRANCE
42 503 ALVES MICHEL 03:31:01:000 D 12 289.00 VILLEUNEUVE ST NICOLAS, FRANCE
43 725 RAIBAUD GILLES 03:31:11:000 E 13 288.00 MOUGINS, FRANCE
44 2314 JEANJEAN GILLES 03:31:12:000 E 14 287.00 COMBAILLAUX, FRANCE
45 511 MUELLER MARC 03:31:14:000 E 15 286.00 CANNES, FRANCE
46 315 PONS BERNARD 03:31:44:000 E 16 285.00 LUYNES, FRANCE
47 72 NOEL JEAN CLAUDE 03:32:33:000 G 2 299.00 SAINT RAPHAEL, FRANCE
48 624 CYRIL POGGI 03:32:34:000 D 13 288.00 ollioules, France
49 504 MAZET ROLAND 03:32:38:000 E 17 284.00 CARCASSONNE, FRANCE
50 54 LHARDY MICHEL 03:32:57:000 F 8 293.00 SAINT JEAN DE MUZOLS, FRANCE
51 269 TALEC CATHERINE 03:33:32:000 AB 1 300.00 GARDANNE, FRANCE
52 1683 MAMBRE GILLES 03:34:07:000 E 18 283.00 TOULON, FRANCE
53 762 CAPELLARO JEAN 03:34:16:000 F 9 292.00 RUELISHEIM, FRANCE
54 2457 AUSSET PASCAL 03:34:52:000 E 19 282.00 SIGOYER, FRANCE
55 741 BERNARD CLAUDE 03:34:53:000 F 10 291.00 TOURNON, FRANCE
56 740 CHALLUT SERGE 03:34:54:000 E 20 281.00 TOURNON SUR RHONE, FRANCE
57 265 MAR DANY 03:35:09:000 E 21 280.00 CARROS, FRANCE
58 207 MARATA PASCAL 03:35:26:000 D 14 287.00 CAGNES SUR MER, FRANCE
59 637 VALERO JESUS 03:35:47:000 F 11 290.00 LE GRAND LEMPS, FRANCE
60 217 DE SAINT JEAN MAGDALENA 03:36:03:000 AB 2 299.00 MARSEILLE, France
61 241 DUPAQUIER ROLAND 03:36:05:000 G 3 298.00 SAVIGNY LE SEC, FRANCE
62 630 PESENTI JEAN PIERRE 03:36:05:000 F 12 289.00 ST MARCEL DE CAREIRET, FRANCE
63 662 PERRIN FLORENT 03:36:07:000 D 15 286.00 EYGLIERS, FRANCE
64 538 TRESALLET GERALD 03:37:07:000 E 22 279.00 CHAMONIX, FRANCE
65 541 AILLAUD LAURENT 03:37:41:000 D 16 285.00 GONFARON, FRANCE
66 1643 VINIT ANDRE 03:37:41:000 E 23 278.00 MEYLAN, FRANCE
67 305 RENAUDIN NICOLAS 03:38:17:000 C 9 292.00 RAMONVILLE ST AGNE, FRANCE
68 547 MONOD FREDERIC 03:38:36:000 E 24 277.00 CEYZERIEU, FRANCE
69 759 TARDY JEAN LUC 03:38:59:000 E 25 276.00 YSSINGEAUX, FRANCE
70 720 HATZELIS PHILIPPE 03:39:01:000 E 26 275.00 TRESSERVE, FRANCE
71 583 RENOUARD MATHIEU 03:39:03:000 C 10 291.00 LUYNES, FRANCE
72 211 BRETON YVES 03:39:21:000 E 27 274.00 ALPE D'HUEZ, FRANCE
73 512 KIRSCH FABRICE 03:40:17:000 D 17 284.00 GUNSTETT, FRANCE
74 618 THOMEL ALEXANDRE 03:41:21:000 D 18 283.00 PUGET THENIERS, FRANCE
75 742 PASSAL CHRISTIAN 03:41:22:000 F 13 288.00 SEEZ, FRANCE
76 264 ZAMBONI VALERIO 03:41:29:000 F 14 287.00 MONTE CARLO, MONACO
77 564 CARLE PHILIPPE 03:42:07:000 E 28 273.00 MENDELIEU, FRANCE
78 209 DAMIANI JEROME 03:42:11:000 F 15 286.00 CARROS, FRANCE
79 210 DAMIANI ANTOINE 03:42:11:000 F 16 285.00 CARROS, FRANCE
80 610 MARTIN FREDERIC 03:42:18:000 D 19 282.00 LES ARCS/ARGENS, FRANCE
81 609 ROUX GEORGES 03:42:35:000 F 17 284.00 VILLETTE, FRANCE
82 59 LORRE STEPHANE 03:42:37:000 D 20 281.00 BARJOLS, FRANCE
83 675 DEBRAINE ERIC 03:43:22:000 E 29 272.00 SAINT MAXIMIN LA SAINTE BAUME, FRANCE
84 528 DRUON MARC 03:45:05:000 E 30 271.00 VITROLLES, France
85 56 ANDREANI SERGE 03:45:16:000 D 21 280.00 MARSEILLE, FRANCE
86 629 VAUTRIN CHRISTIAN 03:45:18:000 F 18 283.00 VILLEFONTAINE, FRANCE
87 220 MAT JACQUES 03:45:23:000 F 19 282.00 BOURG SAINT MAURICE, FRANCE
88 204 LOPEZ PATRICK 03:45:45:000 E 31 270.00 CARROS, FRANCE
89 756 CONVERSET SEBASTIEN 03:45:48:000 D 22 279.00 HERICOURT, FRANCE
90 697 ADAMI JONATHAN 03:45:51:000 C 11 290.00 HYERES, FRANCE
91 1548 MOREAU BERNARD 03:45:52:000 F 20 281.00 VERTAIZON, FRANCE
92 734 FERU MICHEL 03:45:55:000 E 32 269.00 SALLANCHES, FRANCE
93 668 BETRY ETIENNE 03:45:56:000 E 33 268.00 SOLRE LE CHATEAU, FRANCE
94 685 VOISON RODRIGUE 03:45:58:000 D 23 278.00 REIPERTSWILLER, FRANCE
95 215 GRAS DIDIER 03:46:00:000 F 21 280.00 ROGNES, FRANCE
97 739 FAYARD RENE 03:46:06:000 F 22 279.00 VAISON LA ROMAINE, FRANCE
99 69 BERTET ALAIN 03:47:20:000 G 4 297.00 SANARY, FRANCE
100 1612 MARTIN GUY VICTOR 03:47:31:000 F 23 278.00 ANTIBES, FRANCE
101 1587 MAUGNIE ANDRE 03:47:34:000 F 24 277.00 MANDELIEU, FRANCE
102 711 VALENTIN SERGE 03:47:59:000 E 34 267.00 LA TRINITE, FRANCE
103 707 ANTOINE GREGOIRE CHRISTIAN 03:48:13:000 E 35 266.00 NICE, FRANCE
104 633 LAMBINET ALAIN 03:48:19:000 E 36 265.00 WARNECOURT, FRANCE
105 565 GERBAL BRUNO 03:48:59:000 D 24 277.00 MAUGUIO, FRANCE
106 694 GOUIN BERNARD 03:49:26:000 G 5 296.00 VOREPPE, FRANCE
107 566 GANDELIN JEROME 03:49:28:000 E 37 264.00 CULOZ, FRANCE
108 608 EVRARD BERNARD 03:49:28:000 F 25 276.00 ARTIGNOSC SUR VERDON, France
109 753 GARDONI GILLES 03:49:29:000 E 38 263.00 CULOZ, FRANCE
110 540 SORBET FREDERIC 03:49:30:000 D 25 276.00 PLAISANCE DU TOUCH, FRANCE
111 562 DUCREUX ROBERT 03:49:30:000 G 6 295.00 SEVREY, FRANCE
112 1572 DELAGRANGE ANTOINE 03:49:30:000 F 26 275.00 LE CANNET, France
113 1525 HERMAND PIERRE 03:49:32:000 G 7 294.00 ANTIBES, FRANCE
114 600 DUROC CYRILLE 03:50:45:000 D 26 275.00 LES PONT A MOUSSON, FRANCE
115 737 NAMIACHE HERVE 03:50:47:000 D 27 274.00 HYERES, FRANCE
116 531 DOHM JOEL 03:50:58:000 D 28 273.00 MOYEUVRE GRANDE, FRANCE
117 622 LEYDET PIERRE 03:50:59:000 F 27 274.00 BRIGNOLES, France
118 1535 BRASSELET MARC 03:50:59:000 G 8 293.00 TOULON, FRANCE
119 684 CONIO JEAN 03:51:00:000 G 9 292.00 LE PRADET, FRANCE
120 763 DIONI FRANCIS 03:51:02:000 F 28 273.00 ZILLISHEIM, FRANCE
121 516 MERANDI BERNARD 03:51:26:000 D 29 272.00 CANIVERS ARMEES, FRANCE
122 255 AZZOLIN PATRICK 03:51:55:000 F 29 272.00 MEGEVE, FRANCE
123 623 FESSARD J.PIERRE 03:53:00:000 F 30 271.00 SAINTE MAXIME, FRANCE
124 1694 L HOTE PHILIPPE 03:53:12:000 E 39 262.00 LA GARDE, FRANCE
125 222 MUGNIER JACKY 03:53:15:000 E 40 261.00 ST MARTIN DE BELLEVILLE, FRANCE
126 683 GIRAUD CHRISTIAN 03:53:15:000 E 41 260.00 CHATTE, FRANCE
127 588 ROLLAT PATRICK 03:53:18:000 D 30 271.00 BRIGNOLES, FRANCE
128 627 COULOMB FRANCOIS 03:53:18:000 D 31 270.00 FUVEAU, FRANCE
129 652 COQUET GAEL 03:53:43:000 E 42 259.00 VILLARODIN BOURGET, FRANCE
130 242 DERBRE DIDIER 03:53:57:000 F 31 270.00 BRIANCON, FRANCE
131 586 PHILIP PIERRE 03:53:59:000 E 43 258.00 GAP, FRANCE
132 602 CLAUDON MICHEL 03:54:00:000 F 32 269.00 ONVILLE, FRANCE
133 688 STEFFANUT PASCAL 03:54:00:000 D 32 269.00 VILLAGE NEUF, FRANCE
134 254 LIGEON RENE 03:54:39:000 G 10 291.00 MEGEVE, FRANCE
135 681 LORENT JEAN FRANCOIS 03:54:46:000 E 44 257.00 LA LONDE LES MAURES, FRANCE
136 307 BAIWIR PIERRE 03:54:51:000 F 33 268.00 CARPENTRAS, FRANCE
138 549 COLAS OLIVIER 03:55:01:000 E 45 256.00 VILLENEUVE LES MAGUELONE, FRANCE
139 657 BAUDOIN DIDIER 03:55:04:000 F 34 267.00 CAMARET SUR AIGUES, FRANCE
140 612 RUBAT HERVé 03:55:25:000 E 46 255.00 ST PIERRE LA PALUD, FRANCE
141 727 TOUZEAU BENOIT 03:55:25:000 C 12 289.00 HYERES CEDEX, FRANCE
142 752 GALLES J.PAUL 03:55:58:000 F 35 266.00 BAGNOLS SUR CEZE, FRANCE
143 256 GIORGETTI VERONIQUE 03:56:38:000 AB 3 298.00 BARTENHEIM, FRANCE
144 621 MAJ GILLES 03:56:42:000 E 47 254.00 LA PENNE SUR HUVEAUNE, FRANCE
145 708 MORETTI LAURENT 03:57:12:000 E 48 253.00 NICE, AUTRICHE
146 502 VIGNEUX JEAN FRANCOIS 03:57:13:000 E 49 252.00 ST AUBIN LES ELBEUF, FRANCE
147 585 SCHUCHTER JACQUES 03:57:14:000 G 11 290.00 SAINTE MAXIME, FRANCE
148 679 PANEL FREDERIC 03:59:26:000 D 33 268.00 SAINT JOSEPH, FRANCE
149 1759 STOTZ PASCAL 03:59:26:000 D 34 267.00 VOREPPE, FRANCE
150 206 AITTAHAR SAID 03:59:27:000 E 50 251.00 CARROS, FRANCE
151 90 TOUNY CHRISTIAN 03:59:42:000 G 12 289.00 LE CENDRE, FRANCE
152 529 BOSC MICHEL 04:00:01:000 C 13 288.00 SOLAIZE, FRANCE
153 674 LATOUR BRUNO 04:00:59:000 E 51 250.00 COTIGNAC, FRANCE
154 1543 CLERC DANIEL 04:00:59:000 F 36 265.00 ANTIBES, FRANCE
155 518 BORGHESE YVES 04:01:21:000 E 52 249.00 ST LAURENT DU VAR, FRANCE
156 517 VALSASINA JOEL 04:01:22:000 D 35 266.00 NICE, FRANCE
157 733 CHAPUT CHRISTELLE 04:01:23:000 A 1 300.00 BAGNOLS SUR CEZE, FRANCE
158 745 SARNIN CHRISTOPHE 04:01:25:000 E 53 248.00 MARSEILLE, FRANCE
159 2247 ARRICELLI REMY 04:01:25:000 D 36 265.00 MARSEILLE, FRANCE
160 673 WURTZ FRANCOIS 04:01:27:000 E 54 247.00 KEMBS, FRANCE
161 571 CLEMENT JEAN MARC 04:01:32:000 D 37 264.00 LA CRAU, FRANCE
162 510 GUARDASCIONE LAURENT 04:01:37:000 D 38 263.00 LE CANET, FRANCE
163 669 AUBERT GIRARD 04:02:08:000 G 13 288.00 RILLIEUX LA PAPE, FRANCE
164 515 CASALE JOSEPH 04:02:47:000 G 14 287.00 L'UNION, FRANCE
165 634 BONOMI SERGE 04:02:57:000 E 55 246.00 AIX EN PROVENCE, FRANCE
166 735 MORAND FABRICE 04:02:58:000 F 37 264.00 PIGNAN, FRANCE
167 743 MENSA MENSA 04:03:06:000 E 56 245.00 PLAN DE CUQUES, FRANCE
168 620 BUSSON JEROME 04:03:08:000 D 39 262.00 MARSEILLE, FRANCE
169 761 BEAUDET MICHEL 04:03:09:000 D 40 261.00 MARSEILLE, FRANCE
170 770 RENAUD LIONEL 04:03:10:000 E 57 244.00 MONTFERRAT, FRANCE
171 704 FEUILLET JACQUES 04:03:25:000 G 15 286.00 BRINDAS, FRANCE
172 262 CLEMENT GRARD 04:03:30:000 F 38 263.00 MONTCENIS, FRANCE
173 532 MERANDI BIAGGO 04:03:31:000 E 58 243.00 CLOUANGE, FRANCE
174 73 BENAREAU IGNAKI 04:03:36:000 D 41 260.00 MONTESQUIEU DES ALBERES, FRANCE
175 212 PEDERSEN MALENE 04:03:38:000 AB 4 297.00 LE PRADET, FRANCE
176 63 DERUFFE ALAIN 04:04:33:000 F 39 262.00 LA GARDE, FRANCE
177 664 GRASSY DANIEL 04:04:35:000 G 16 285.00 ST THOMAS DE CONAC, FRANCE
178 755 CONVERSET CLAUDE 04:04:40:000 F 40 261.00 LUZE, FRANCE
179 561 ARGUEL BERNARD 04:05:16:000 G 17 284.00 SAINT CIRGUES EN MONTAGNE, FRANCE
180 1655 BUHOT GEORGES 04:06:12:000 E 59 242.00 ROUSSET, FRANCE
181 715 HANDSCHIN THIERRY 04:06:38:000 E 60 241.00 RIEDISHEIM, FRANCE
182 714 HANDSCHIN ESTELLE 04:06:39:000 AB 5 296.00 RIEDISHEIM, FRANCE
183 638 TYLER DAVID 04:06:40:000 E 61 240.00 WHYTELEAFE, Royaume-Uni
184 702 VACHET ALAIN 04:06:42:000 F 41 260.00 SARRIANS, FRANCE
185 713 BORGOBELLO MAURICE 04:06:45:000 G 18 283.00 MOUCILLY LES BUXY, FRANCE
186 539 TROUSSIER PHILIPPE 04:07:11:000 E 62 239.00 MONESTIER DE CLERMONT, FRANCE
187 619 POURCHAIRE IVAN 04:07:52:000 F 42 259.00 PLATS, FRANCE
188 614 LESCURE HERVE 04:07:53:000 E 63 238.00 LES DEUX ALPES, FRANCE
189 544 GOMEZ MARCEL 04:07:55:000 G 19 282.00 ST GENES EN CHAMPAGNE, FRANCE
190 506 GUILLOT SYLVAIN 04:08:57:000 D 42 259.00 BOURG EN BRESSE, FRANCE
191 672 LACOMBE LUCIEN 04:08:58:000 G 20 281.00 SATHONAY VILLAGE, FRANCE
192 706 LOQUET BAYARD FRANCOIS 04:08:59:000 E 64 237.00 NICE, FRANCE
193 749 COGNARD MATTHIEU 04:10:18:000 C 14 287.00 ALLAUCH, FRANCE
194 650 GUILLON PIERRE 04:10:44:000 G 21 280.00 FRONTONAS, FRANCE
195 666 BOISLARD GUY 04:10:44:000 G 22 279.00 LA COURONNE, FRANCE
196 676 MORO LUCIANO 04:10:45:000 F 43 258.00 OYONNAX, FRANCE
197 527 CUCCIA SERGE 04:10:59:000 E 65 236.00 MARIGNANE, France
198 699 MAREGGIO BERNARD 04:11:01:000 F 44 257.00 HYERES, FRANCE
199 736 AURIEL LAURENT 04:11:31:000 D 43 258.00 LAON COUVRON CEDEX, FRANCE
200 747 DEVERECI ANGELIE 04:12:18:000 A 2 299.00 ALLAUCH, FRANCE
201 691 SALVI ROBERT 04:12:42:000 F 45 256.00 VOREPPE, FRANCE
202 680 PROUTEAU JEAN 04:13:00:000 F 46 255.00 HYERES, FRANCE
203 718 DECHANDON CLAUDE 04:15:05:000 G 23 278.00 HYERES, FRANCE
204 558 NOURY CHRISTIAN 04:15:23:000 G 24 277.00 MAROMME, FRANCE
205 606 PERIN SERGE 04:15:27:000 F 47 254.00 JEUMONT, FRANCE
206 653 LADEFOGED ANDERS 04:15:29:000 F 48 253.00 VILLENEUVE LOUBET, FRANCE
207 596 DORIGO RAYMOND 04:15:32:000 G 25 276.00 LE LAVANDOU, FRANCE
208 689 PETIT PHILIPPE 04:16:04:000 E 66 235.00 SAINT LOUIS, FRANCE
209 555 BLOUIN DAMIEN 04:16:11:000 D 44 257.00 TOULON, FRANCE
210 563 LEGUILOCHET ERIC 04:16:11:000 E 67 234.00 TOULON, FRANCE
211 615 CARR LUCY 04:16:39:000 AB 6 295.00 ANTIBES, FRANCE
212 760 IMBO GILBERT 04:16:51:000 E 68 233.00 MAGAGNOSC, FRANCE
213 523 OGIER NICOLAS 04:16:52:000 D 45 256.00 CARROS, FRANCE
214 663 PANEL MAURICE 04:18:41:000 G 26 275.00 SAINT JOSEPH, FRANCE
215 572 CANTALOUBE HERVE 04:20:12:000 D 46 255.00 SAULT, FRANCE
216 677 GOUGIBUS J.MARIE 04:20:24:000 G 27 274.00 GERMIGNY L'EVEQUE, FRANCE
217 1534 GUILLON GERARD 04:21:02:000 G 28 273.00 CANNES LA BOCCA, FRANCE
218 692 BONIFACI LOUIS 04:21:15:000 F 49 252.00 VOREPPE, FRANCE
219 771 GENEVOIS JEAN 04:21:18:000 G 29 272.00 CAVALAIRE, FRANCE
220 537 LAMBERT PIERRE 04:21:21:000 F 50 251.00 SAINT SERNIN DU PLAIN, FRANCE
221 693 FABRY MAX 04:21:21:000 F 51 250.00 VOREPPE, FRANCE
222 505 MARTHON CHRISTOPHE 04:21:23:000 C 15 286.00 SERVOZ, FRANCE
223 553 LEMAITRE VINCENT 04:23:37:000 D 47 254.00 ROGNAC, FRANCE
224 559 MARIE LIONEL 04:23:39:000 D 48 253.00 CROLLES, FRANCE
225 304 MANDRACCHIA STEPHANE 04:23:41:000 D 49 252.00 ROGNAC, France
226 607 DUCROUX BERNARD 04:24:43:000 F 52 249.00 BORMES LES MIMOSAS, FRANCE
227 311 PEDRETTI GIOVANNI 04:24:47:000 G 30 271.00 BOUSSY ST ANTOINE, FRANCE
228 656 PETIT JEAN PAUL 04:25:33:000 G 31 270.00 PLANCHERINE, FRANCE
229 732 BALLET JEAN PIERRE 04:25:33:000 G 32 269.00 NICE, FRANCE
230 604 MAZIERO LAURENT 04:25:36:000 C 16 285.00 HYERES, FRANCE
231 597 MULLER JEAN 04:25:38:000 F 53 248.00 STRASBOURG, FRANCE
232 719 LANGAIN DENIS 04:25:51:000 E 69 232.00 TRESSERVE, FRANCE
233 560 ISMAEL DANIEL 04:26:01:000 E 70 231.00 MENTON, FRANCE
234 1620 GAETAN ROLAND 04:26:01:000 E 71 230.00 AMBRONAY, France
235 1742 BASCOP PASCAL 04:26:39:000 D 50 251.00 ROANNE, France
236 525 CALBERA OLIVIER 04:26:47:000 D 51 250.00 NICE, FRANCE
237 659 CANONGE FABRICE 04:26:47:000 D 52 249.00 PEYNIER, FRANCE
238 701 NOVELLO CORINNE 04:26:51:000 AB 7 294.00 NICE, FRANCE
239 569 DE SALVO RENE 04:27:18:000 E 72 229.00 NICE, FRANCE
240 526 ROBERT PATRICK 04:27:25:000 F 54 247.00 THYEZ, FRANCE
241 598 VERNA PIERRE 04:27:36:000 E 73 228.00 LA CRAU, FRANCE
242 570 ROSTAN CHRISTIAN 04:27:42:000 F 55 246.00 GAP, FRANCE
243 661 AMIC OLIVIER 04:29:39:000 D 53 248.00 HYERES, FRANCE
245 536 MERLIN MICHELE 04:30:32:000 B 1 300.00 ALLAUCH, FRANCE
246 543 SAEZ BERNARD 04:30:32:000 F 56 245.00 ALLAUCH, FRANCE
247 58 JOUFFRET NATHALIE 04:30:34:000 AB 8 293.00 CARQUEIRANNE, FRANCE
248 744 APREW DENIS 04:30:41:000 E 74 227.00 NOVES, FRANCE
249 746 DICKELE JEAN LUC 04:30:42:000 E 75 226.00 NOVES, FRANCE
250 202 FOURTIN MYRIAM 04:30:47:000 AB 9 292.00 GAP, FRANCE
251 573 BOERI PHILIPPE 04:30:58:000 F 57 244.00 NICE, FRANCE
252 567 PAYAN SERGE 04:30:59:000 F 58 243.00 NICE, FRANCE
253 599 WENGLARZ MICHEL 04:30:59:000 E 76 225.00 METZ, FRANCE
254 260 JOUFFRET CHRISTOPHE 04:31:37:000 E 77 224.00 CARQUEIRANNE, FRANCE
255 670 LESCUYER BERNARD 04:31:43:000 F 59 242.00 VILLEURBANNE, FRANCE
256 259 BROCCARDO JACKY 04:32:03:000 E 78 223.00 HYERES, FRANCE
257 716 SOUARD REMI 04:32:06:000 E 79 222.00 HYERES, FRANCE
258 591 TRONGNEUX ALAIN 04:32:15:000 E 80 221.00 BOURG SAINT ANDEOL, FRANCE
259 592 VIAL JEAN MICHEL 04:32:15:000 D 54 247.00 MORNAS, FRANCE
260 594 ORTEGA STEPHANE 04:32:15:000 D 55 246.00 GAUJAC, FRANCE
261 593 SAGE JEAN MARIE 04:32:16:000 E 81 220.00 BAGNOLS SUR CEZE, FRANCE
262 590 DELFAUD CHRISTEL 04:32:17:000 E 82 219.00 BOLLENE, FRANCE
263 589 DELFAUD LUC 04:32:18:000 E 83 218.00 BAGNOLS SUR CEZE, FRANCE
264 595 RICHARD JEAN CLAUDE 04:32:18:000 E 84 217.00 LAUDUN ST VICTOR LA COSTE, FRANCE
265 546 FREY ALAIN 04:32:19:000 E 85 216.00 GRIESLEIN MOLSHEIN, FRANCE
266 545 BURGER YVES 04:32:20:000 E 86 215.00 DACHSTEIN, FRANCE
267 605 SURREL J.MICHEL 04:32:20:000 D 56 245.00 SAINT ETIENNE, France
268 658 GARCIA CHRISTOPHE 04:32:21:000 D 57 244.00 CHASSIEU, FRANCE
269 712 BARATTERO NICOLAS 04:32:22:000 C 17 284.00 HYERES, FRANCE
270 611 KINCH ANTHONY 04:32:23:000 F 60 241.00 VILLENEUVE LOUBET, FRANCE
271 654 CRUAUD PIERRE 04:32:24:000 F 61 240.00 CHAMBERY, FRANCE
272 303 FENEAU ALAIN 04:32:32:000 G 33 268.00 CANNES, France
273 205 METAIS ROBERT 04:32:34:000 F 62 239.00 CANNES, FRANCE
274 601 VEYS PASCALINE 04:34:00:000 A 3 298.00 METZ, FRANCE
275 507 CARROUEE BRUNO 04:34:01:000 E 87 214.00 METZ TESSY, FRANCE
276 577 MAILLARD CHRISTIAN 04:35:03:000 F 63 238.00 MANOSQUE, FRANCE
277 551 SELVA PASCAL 04:35:25:000 E 88 213.00 LEYMENT, FRANCE
278 631 BREVET THIERRY 04:35:30:000 E 89 212.00 CHATEAU GAILLARD, FRANCE
279 646 TORSIELLO ROCCO 04:35:58:000 F 64 237.00 ENTRAIGUES SUR SORGUES, FRANCE
280 513 FAZZARI GEORGES 04:36:03:000 E 90 211.00 MENTON, FRANCE
281 556 MC FARLANE ALAN 04:38:18:000 F 65 236.00 NARBONNE, FRANCE
282 710 MORTAS ROGER 04:39:35:000 G 34 267.00 BOURG DE PEAGE, FRANCE
283 552 FAVOT PATRICK 04:39:38:000 E 91 210.00 COLOMARS, FRANCE
284 632 JOURDAN GUY 04:44:36:000 F 66 235.00 VAULX MILIEU, FRANCE
285 678 PANEL GEORGES 04:44:42:000 G 35 266.00 SAINT JOSEPH, FRANCE
286 665 BONNAND ANDRE 04:44:46:000 G 36 265.00 GENILAC, FRANCE
287 306 DIS BERNARD 04:45:34:000 E 92 209.00 TANNERON, FRANCE
288 603 RIAUSSET RICHARD 04:45:35:000 E 93 208.00 PEGOMAS, FRANCE
289 703 BERNARD ALAIN 04:45:38:000 E 94 207.00 MONTEUX, FRANCE
290 535 OSCHE ALAIN 04:45:44:000 G 37 264.00 ARGONAY, FRANCE
291 616 DARNAUD ANDRE 04:46:23:000 G 38 263.00 VAUGNERAY, FRANCE
292 722 COTTET ELVIS 04:46:43:000 D 58 243.00 SAINT MARCELLIN, FRANCE
293 721 VATEY DOMINIQUE 04:46:46:000 F 67 234.00 LES AVENIERES, FRANCE
294 686 ATTIMONELLI MAXIME 04:46:47:000 F 68 233.00 LES AVENIERES, FRANCE
295 651 FILLIOL BRUNO 04:50:01:000 F 69 232.00 DRAGUIGNAN, FRANCE
296 1703 CHARTIER GILLES 04:55:39:000 E 95 206.00 SALT EN DONZY, FRANCE
297 726 NOGUES BRIGITTE 04:57:02:000 AB 10 291.00 CARQUEIRANNE, FRANCE
298 769 FARINA SALVATORE 04:58:14:000 E 96 205.00 SAINT MARCELLIN, FRANCE
299 766 LACROIX JEAN MICHEL 04:58:18:000 E 97 204.00 SAINT VERAND, FRANCE
300 700 FRAND CLAUDE 05:03:08:000 F 70 231.00 Saint pierre es champs, France
301 768 RIEGER MICHEL 05:03:13:000 F 71 230.00 SAINT MARCELLIN, FRANCE
302 519 JUMETZ DAVID 05:04:01:000 D 59 242.00 MALLEMOISSON, FRANCE
303 767 CLEMENT JEAN CHARLES 05:05:22:000 F 72 229.00 SAINT MARCELLIN, FRANCE
304 642 LIENS ROLAND 05:05:47:000 F 73 228.00 CARPENTRAS, FRANCE
305 647 MAGNAN PATRICK 05:05:48:000 E 98 203.00 PERNES LES FONTAINES, FRANCE
306 639 ALAZARD JOSE 05:08:19:000 F 74 227.00 CARPENTRAS, FRANCE
307 705 DENIS PERALDI LAURENT 05:19:21:000 E 99 202.00 NICE, FRANCE
308 772 COLLONGE DANIEL 05:22:15:000 G 39 262.00 CHARNAY, FRANCE
309 671 BIGAULT J.CLAUDE 05:25:01:000 G 40 261.00 WARCQ, FRANCE
310 698 FOURNERIE MARIUS 05:33:09:000 F 75 226.00 LAMOTHE, FRANCE

La Probikeshop GF Mont Ventoux Beaumes-de-Venise

Après une saison 2020 très particulière et face à cette pandémie qui s'étire en longueur, nous avons dû nous adapter.

Ainsi, c'est avec beaucoup de regrets que nous vous annonçons que La Probikeshop GF Mont Ventoux Beaumes-de-Venise ne sera pas organisée en 2021.

Nous travaillons afin que vous puissiez relever le défi de manière alternative.

Nous vous tiendrons informés.
TOP